sensor_id;sensor_type;location;lat;lon;timestamp;pressure;altitude;pressure_sealevel;temperature;humidity
24230;BME280;12362;50.004;8.006;2023-04-09T00:00:35;101445.38;;;8.27;100.00
24230;BME280;12362;50.004;8.006;2023-04-09T00:03:01;101447.88;;;8.32;100.00
24230;BME280;12362;50.004;8.006;2023-04-09T00:05:27;101446.22;;;8.28;100.00
24230;BME280;12362;50.004;8.006;2023-04-09T00:07:53;101443.59;;;8.29;100.00
24230;BME280;12362;50.004;8.006;2023-04-09T00:10:19;101439.22;;;8.33;100.00
24230;BME280;12362;50.004;8.006;2023-04-09T00:12:44;101437.34;;;8.39;100.00
24230;BME280;12362;50.004;8.006;2023-04-09T00:15:10;101441.59;;;8.42;100.00
24230;BME280;12362;50.004;8.006;2023-04-09T00:17:36;101432.66;;;8.53;100.00
24230;BME280;12362;50.004;8.006;2023-04-09T00:20:01;101428.25;;;8.58;100.00
24230;BME280;12362;50.004;8.006;2023-04-09T00:22:29;101428.13;;;8.63;100.00
24230;BME280;12362;50.004;8.006;2023-04-09T00:24:54;101430.00;;;8.58;100.00
24230;BME280;12362;50.004;8.006;2023-04-09T00:27:20;101427.47;;;8.55;100.00
24230;BME280;12362;50.004;8.006;2023-04-09T00:29:49;101429.28;;;8.51;100.00
24230;BME280;12362;50.004;8.006;2023-04-09T00:32:14;101421.59;;;8.47;100.00
24230;BME280;12362;50.004;8.006;2023-04-09T00:34:40;101420.13;;;8.38;100.00
24230;BME280;12362;50.004;8.006;2023-04-09T00:37:05;101427.78;;;8.41;100.00
24230;BME280;12362;50.004;8.006;2023-04-09T00:39:31;101426.06;;;8.42;100.00
24230;BME280;12362;50.004;8.006;2023-04-09T00:41:58;101419.06;;;8.45;100.00
24230;BME280;12362;50.004;8.006;2023-04-09T00:44:24;101421.66;;;8.45;100.00
24230;BME280;12362;50.004;8.006;2023-04-09T00:46:50;101421.66;;;8.45;100.00
24230;BME280;12362;50.004;8.006;2023-04-09T00:49:17;101424.94;;;8.52;100.00
24230;BME280;12362;50.004;8.006;2023-04-09T00:51:44;101419.72;;;8.53;100.00
24230;BME280;12362;50.004;8.006;2023-04-09T00:54:11;101417.19;;;8.52;100.00
24230;BME280;12362;50.004;8.006;2023-04-09T00:56:37;101424.13;;;8.51;100.00
24230;BME280;12362;50.004;8.006;2023-04-09T00:59:03;101424.13;;;8.50;100.00
24230;BME280;12362;50.004;8.006;2023-04-09T01:01:29;101423.25;;;8.51;100.00
24230;BME280;12362;50.004;8.006;2023-04-09T01:04:10;101424.13;;;8.50;100.00
24230;BME280;12362;50.004;8.006;2023-04-09T01:06:50;101425.94;;;8.46;100.00
24230;BME280;12362;50.004;8.006;2023-04-09T01:09:40;101425.13;;;8.46;100.00
24230;BME280;12362;50.004;8.006;2023-04-09T01:12:20;101424.13;;;8.50;100.00
24230;BME280;12362;50.004;8.006;2023-04-09T01:15:10;101418.94;;;8.50;100.00
24230;BME280;12362;50.004;8.006;2023-04-09T01:20:41;101415.38;;;8.55;100.00
24230;BME280;12362;50.004;8.006;2023-04-09T01:28:53;101414.59;;;8.52;100.00
24230;BME280;12362;50.004;8.006;2023-04-09T01:31:25;101418.88;;;8.53;100.00
24230;BME280;12362;50.004;8.006;2023-04-09T01:33:56;101417.00;;;8.59;100.00
24230;BME280;12362;50.004;8.006;2023-04-09T01:36:23;101414.47;;;8.58;100.00
24230;BME280;12362;50.004;8.006;2023-04-09T01:38:50;101420.53;;;8.55;100.00
24230;BME280;12362;50.004;8.006;2023-04-09T01:41:18;101416.25;;;8.54;100.00
24230;BME280;12362;50.004;8.006;2023-04-09T01:43:48;101416.34;;;8.51;100.00
24230;BME280;12362;50.004;8.006;2023-04-09T01:46:15;101420.63;;;8.52;100.00
24230;BME280;12362;50.004;8.006;2023-04-09T01:48:42;101415.53;;;8.49;100.00
24230;BME280;12362;50.004;8.006;2023-04-09T01:51:08;101425.13;;;8.46;100.00
24230;BME280;12362;50.004;8.006;2023-04-09T01:53:34;101424.25;;;8.45;100.00
24230;BME280;12362;50.004;8.006;2023-04-09T01:56:00;101424.28;;;8.44;100.00
24230;BME280;12362;50.004;8.006;2023-04-09T01:58:26;101422.72;;;8.37;100.00
24230;BME280;12362;50.004;8.006;2023-04-09T02:00:58;101430.38;;;8.41;100.00
24230;BME280;12362;50.004;8.006;2023-04-09T02:03:31;101427.06;;;8.36;100.00
24230;BME280;12362;50.004;8.006;2023-04-09T02:06:13;101430.47;;;8.37;100.00
24230;BME280;12362;50.004;8.006;2023-04-09T02:08:43;101431.28;;;8.39;100.00
24230;BME280;12362;50.004;8.006;2023-04-09T02:11:10;101425.41;;;8.34;100.00
24230;BME280;12362;50.004;8.006;2023-04-09T02:13:39;101432.28;;;8.33;100.00
24230;BME280;12362;50.004;8.006;2023-04-09T02:16:06;101432.25;;;8.35;100.00
24230;BME280;12362;50.004;8.006;2023-04-09T02:18:31;101436.66;;;8.31;100.00
24230;BME280;12362;50.004;8.006;2023-04-09T02:20:58;101430.69;;;8.28;100.00
24230;BME280;12362;50.004;8.006;2023-04-09T02:23:24;101429.78;;;8.30;100.00
24230;BME280;12362;50.004;8.006;2023-04-09T02:25:52;101434.06;;;8.31;100.00
24230;BME280;12362;50.004;8.006;2023-04-09T02:28:18;101428.13;;;8.28;100.00
24230;BME280;12362;50.004;8.006;2023-04-09T02:30:44;101429.88;;;8.27;100.00
24230;BME280;12362;50.004;8.006;2023-04-09T02:33:09;101423.81;;;8.27;100.00
24230;BME280;12362;50.004;8.006;2023-04-09T02:35:35;101429.81;;;8.29;100.00
24230;BME280;12362;50.004;8.006;2023-04-09T02:38:00;101434.16;;;8.28;100.00
24230;BME280;12362;50.004;8.006;2023-04-09T02:40:26;101431.53;;;8.30;100.00
24230;BME280;12362;50.004;8.006;2023-04-09T02:42:52;101433.34;;;8.25;100.00
24230;BME280;12362;50.004;8.006;2023-04-09T02:45:18;101436.03;;;8.20;100.00
24230;BME280;12362;50.004;8.006;2023-04-09T02:47:44;101427.34;;;8.24;100.00
24230;BME280;12362;50.004;8.006;2023-04-09T02:50:10;101439.56;;;8.18;100.00
24230;BME280;12362;50.004;8.006;2023-04-09T02:52:45;101435.31;;;8.15;100.00
24230;BME280;12362;50.004;8.006;2023-04-09T02:55:10;101439.50;;;8.19;100.00
24230;BME280;12362;50.004;8.006;2023-04-09T02:57:36;101437.84;;;8.17;100.00
24230;BME280;12362;50.004;8.006;2023-04-09T03:00:02;101434.41;;;8.15;100.00
24230;BME280;12362;50.004;8.006;2023-04-09T03:02:27;101437.03;;;8.13;100.00
24230;BME280;12362;50.004;8.006;2023-04-09T03:04:53;101440.50;;;8.12;100.00
24230;BME280;12362;50.004;8.006;2023-04-09T03:07:18;101432.72;;;8.15;100.00
24230;BME280;12362;50.004;8.006;2023-04-09T03:09:44;101431.88;;;8.12;100.00
24230;BME280;12362;50.004;8.006;2023-04-09T03:12:10;101430.13;;;8.14;100.00
24230;BME280;12362;50.004;8.006;2023-04-09T03:14:38;101425.09;;;8.08;100.00
24230;BME280;12362;50.004;8.006;2023-04-09T03:17:04;101423.50;;;8.01;100.00
24230;BME280;12362;50.004;8.006;2023-04-09T03:19:30;101424.50;;;7.97;100.00
24230;BME280;12362;50.004;8.006;2023-04-09T03:21:55;101421.28;;;7.86;100.00
24230;BME280;12362;50.004;8.006;2023-04-09T03:24:24;101418.81;;;7.80;100.00
24230;BME280;12362;50.004;8.006;2023-04-09T03:26:50;101417.47;;;7.63;100.00
24230;BME280;12362;50.004;8.006;2023-04-09T03:29:16;101409.91;;;7.52;100.00
24230;BME280;12362;50.004;8.006;2023-04-09T03:31:42;101410.78;;;7.53;100.00
24230;BME280;12362;50.004;8.006;2023-04-09T03:34:14;101402.16;;;7.54;100.00
24230;BME280;12362;50.004;8.006;2023-04-09T03:36:40;101409.81;;;7.58;100.00
24230;BME280;12362;50.004;8.006;2023-04-09T03:39:13;101402.88;;;7.60;100.00
24230;BME280;12362;50.004;8.006;2023-04-09T03:41:42;101402.88;;;7.59;100.00
24230;BME280;12362;50.004;8.006;2023-04-09T03:44:12;101400.50;;;7.51;100.00
24230;BME280;12362;50.004;8.006;2023-04-09T03:46:52;101397.25;;;7.40;100.00
24230;BME280;12362;50.004;8.006;2023-04-09T03:49:18;101401.84;;;7.26;100.00
24230;BME280;12362;50.004;8.006;2023-04-09T03:51:44;101403.09;;;7.06;100.00
24230;BME280;12362;50.004;8.006;2023-04-09T03:54:10;101406.00;;;6.88;100.00
24230;BME280;12362;50.004;8.006;2023-04-09T03:56:36;101415.94;;;6.62;100.00
24230;BME280;12362;50.004;8.006;2023-04-09T03:59:06;101410.34;;;6.36;100.00
24230;BME280;12362;50.004;8.006;2023-04-09T04:01:37;101417.25;;;6.34;100.00
24230;BME280;12362;50.004;8.006;2023-04-09T04:04:02;101411.38;;;6.27;100.00
24230;BME280;12362;50.004;8.006;2023-04-09T04:06:48;101410.66;;;6.17;100.00
24230;BME280;12362;50.004;8.006;2023-04-09T04:09:24;101410.69;;;6.16;100.00
24230;BME280;12362;50.004;8.006;2023-04-09T04:11:56;101416.84;;;6.04;100.00
24230;BME280;12362;50.004;8.006;2023-04-09T04:14:28;101421.25;;;5.96;100.00
24230;BME280;12362;50.004;8.006;2023-04-09T04:17:00;101419.75;;;5.80;100.00
24230;BME280;12362;50.004;8.006;2023-04-09T04:19:29;101415.56;;;5.70;100.00
24230;BME280;12362;50.004;8.006;2023-04-09T04:21:55;101419.13;;;5.60;100.00
24230;BME280;12362;50.004;8.006;2023-04-09T04:24:23;101421.00;;;5.49;100.00
24230;BME280;12362;50.004;8.006;2023-04-09T04:26:49;101427.13;;;5.38;100.00
24230;BME280;12362;50.004;8.006;2023-04-09T04:29:17;101426.31;;;5.33;100.00
24230;BME280;12362;50.004;8.006;2023-04-09T04:31:58;101429.81;;;5.28;100.00
24230;BME280;12362;50.004;8.006;2023-04-09T04:34:29;101436.06;;;5.04;100.00
24230;BME280;12362;50.004;8.006;2023-04-09T04:37:00;101426.63;;;5.06;100.00
24230;BME280;12362;50.004;8.006;2023-04-09T04:39:30;101431.66;;;5.15;100.00
24230;BME280;12362;50.004;8.006;2023-04-09T04:42:06;101424.81;;;5.14;100.00
24230;BME280;12362;50.004;8.006;2023-04-09T04:44:32;101428.25;;;5.15;100.00
24230;BME280;12362;50.004;8.006;2023-04-09T04:47:07;101426.47;;;5.20;100.00
24230;BME280;12362;50.004;8.006;2023-04-09T04:49:32;101432.47;;;5.22;100.00
24230;BME280;12362;50.004;8.006;2023-04-09T04:52:00;101433.38;;;5.16;100.00
24230;BME280;12362;50.004;8.006;2023-04-09T04:54:26;101441.06;;;5.21;100.00
24230;BME280;12362;50.004;8.006;2023-04-09T04:56:55;101431.56;;;5.26;100.00
24230;BME280;12362;50.004;8.006;2023-04-09T04:59:38;101435.78;;;5.33;100.00
24230;BME280;12362;50.004;8.006;2023-04-09T05:02:06;101439.16;;;5.36;100.00
24230;BME280;12362;50.004;8.006;2023-04-09T05:04:41;101437.44;;;5.35;100.00
24230;BME280;12362;50.004;8.006;2023-04-09T05:07:10;101440.06;;;5.31;100.00
24230;BME280;12362;50.004;8.006;2023-04-09T05:09:43;101445.34;;;5.19;100.00
24230;BME280;12362;50.004;8.006;2023-04-09T05:12:09;101441.25;;;5.01;100.00
24230;BME280;12362;50.004;8.006;2023-04-09T05:14:35;101450.75;;;4.95;100.00
24230;BME280;12362;50.004;8.006;2023-04-09T05:17:03;101441.06;;;5.19;100.00
24230;BME280;12362;50.004;8.006;2023-04-09T05:19:39;101446.16;;;5.27;100.00
24230;BME280;12362;50.004;8.006;2023-04-09T05:22:05;101446.16;;;5.24;100.00
24230;BME280;12362;50.004;8.006;2023-04-09T05:24:30;101447.72;;;5.38;100.00
24230;BME280;12362;50.004;8.006;2023-04-09T05:26:56;101451.09;;;5.41;100.00
24230;BME280;12362;50.004;8.006;2023-04-09T05:29:23;101443.31;;;5.46;100.00
24230;BME280;12362;50.004;8.006;2023-04-09T05:31:48;101450.19;;;5.47;100.00
24230;BME280;12362;50.004;8.006;2023-04-09T05:34:46;101450.81;;;5.67;100.00
24230;BME280;12362;50.004;8.006;2023-04-09T05:37:15;101449.88;;;5.74;100.00
24230;BME280;12362;50.004;8.006;2023-04-09T05:39:51;101445.50;;;5.82;100.00
24230;BME280;12362;50.004;8.006;2023-04-09T05:42:17;101452.19;;;5.95;100.00
24230;BME280;12362;50.004;8.006;2023-04-09T05:44:50;101446.13;;;5.99;100.00
24230;BME280;12362;50.004;8.006;2023-04-09T05:47:18;101449.53;;;6.02;100.00
24230;BME280;12362;50.004;8.006;2023-04-09T05:49:55;101452.78;;;6.15;100.00
24230;BME280;12362;50.004;8.006;2023-04-09T05:52:21;101451.75;;;6.26;100.00
24230;BME280;12362;50.004;8.006;2023-04-09T05:54:49;101455.97;;;6.33;100.00
24230;BME280;12362;50.004;8.006;2023-04-09T05:57:20;101441.03;;;6.51;100.00
24230;BME280;12362;50.004;8.006;2023-04-09T05:59:53;101450.44;;;6.57;100.00
24230;BME280;12362;50.004;8.006;2023-04-09T06:02:19;101455.41;;;6.69;100.00
24230;BME280;12362;50.004;8.006;2023-04-09T06:04:45;101453.22;;;6.95;100.00
24230;BME280;12362;50.004;8.006;2023-04-09T06:07:12;101440.91;;;7.10;100.00
24230;BME280;12362;50.004;8.006;2023-04-09T06:09:38;101449.22;;;7.25;100.00
24230;BME280;12362;50.004;8.006;2023-04-09T06:12:03;101437.78;;;7.37;100.00
24230;BME280;12362;50.004;8.006;2023-04-09T06:14:29;101439.84;;;7.64;100.00
24230;BME280;12362;50.004;8.006;2023-04-09T06:16:58;101448.13;;;7.79;100.00
24230;BME280;12362;50.004;8.006;2023-04-09T06:19:24;101444.91;;;8.07;100.00
24230;BME280;12362;50.004;8.006;2023-04-09T06:21:49;101439.41;;;8.24;100.00
24230;BME280;12362;50.004;8.006;2023-04-09T06:24:17;101443.13;;;8.49;100.00
24230;BME280;12362;50.004;8.006;2023-04-09T06:26:43;101442.66;;;8.68;100.00
24230;BME280;12362;50.004;8.006;2023-04-09T06:29:09;101437.75;;;8.91;100.00
24230;BME280;12362;50.004;8.006;2023-04-09T06:31:37;101435.03;;;8.96;100.00
24230;BME280;12362;50.004;8.006;2023-04-09T06:34:06;101433.13;;;9.03;100.00
24230;BME280;12362;50.004;8.006;2023-04-09T06:36:32;101429.03;;;9.27;100.00
24230;BME280;12362;50.004;8.006;2023-04-09T06:38:58;101436.31;;;9.45;100.00
24230;BME280;12362;50.004;8.006;2023-04-09T06:41:24;101432.66;;;9.52;100.00
24230;BME280;12362;50.004;8.006;2023-04-09T06:43:51;101437.97;;;9.47;100.00
24230;BME280;12362;50.004;8.006;2023-04-09T06:46:17;101439.19;;;9.65;100.00
24230;BME280;12362;50.004;8.006;2023-04-09T06:48:45;101442.94;;;9.84;100.00
24230;BME280;12362;50.004;8.006;2023-04-09T06:51:11;101430.47;;;9.96;100.00
24230;BME280;12362;50.004;8.006;2023-04-09T06:53:37;101445.72;;;10.08;100.00
24230;BME280;12362;50.004;8.006;2023-04-09T06:56:03;101432.59;;;10.40;100.00
24230;BME280;12362;50.004;8.006;2023-04-09T06:58:29;101430.50;;;10.51;100.00
24230;BME280;12362;50.004;8.006;2023-04-09T07:00:55;101422.28;;;10.64;100.00
24230;BME280;12362;50.004;8.006;2023-04-09T07:03:20;101421.41;;;10.89;100.00
24230;BME280;12362;50.004;8.006;2023-04-09T07:05:46;101414.69;;;11.33;100.00
24230;BME280;12362;50.004;8.006;2023-04-09T07:08:13;101409.53;;;11.78;100.00
24230;BME280;12362;50.004;8.006;2023-04-09T07:10:45;101408.25;;;12.11;100.00
24230;BME280;12362;50.004;8.006;2023-04-09T07:13:12;101409.44;;;12.03;100.00
24230;BME280;12362;50.004;8.006;2023-04-09T07:15:37;101410.31;;;12.25;100.00
24230;BME280;12362;50.004;8.006;2023-04-09T07:18:03;101404.66;;;12.57;100.00
24230;BME280;12362;50.004;8.006;2023-04-09T07:20:29;101406.06;;;12.65;100.00
24230;BME280;12362;50.004;8.006;2023-04-09T07:22:55;101413.59;;;12.51;100.00
24230;BME280;12362;50.004;8.006;2023-04-09T07:25:20;101409.31;;;12.91;100.00
24230;BME280;12362;50.004;8.006;2023-04-09T07:27:46;101408.41;;;13.32;100.00
24230;BME280;12362;50.004;8.006;2023-04-09T07:30:15;101408.84;;;13.22;100.00
24230;BME280;12362;50.004;8.006;2023-04-09T07:32:40;101412.69;;;13.13;100.00
24230;BME280;12362;50.004;8.006;2023-04-09T07:35:07;101417.72;;;13.18;100.00
24230;BME280;12362;50.004;8.006;2023-04-09T07:37:34;101407.16;;;13.21;100.00
24230;BME280;12362;50.004;8.006;2023-04-09T07:40:00;101413.81;;;13.66;100.00
24230;BME280;12362;50.004;8.006;2023-04-09T07:42:28;101405.81;;;13.69;100.00
24230;BME280;12362;50.004;8.006;2023-04-09T07:44:54;101404.50;;;13.79;100.00
24230;BME280;12362;50.004;8.006;2023-04-09T07:47:21;101409.00;;;13.75;100.00
24230;BME280;12362;50.004;8.006;2023-04-09T07:49:47;101411.94;;;13.50;100.00
24230;BME280;12362;50.004;8.006;2023-04-09T07:52:12;101407.38;;;14.10;100.00
24230;BME280;12362;50.004;8.006;2023-04-09T07:54:38;101411.75;;;14.28;100.00
24230;BME280;12362;50.004;8.006;2023-04-09T07:57:03;101401.09;;;14.84;100.00
24230;BME280;12362;50.004;8.006;2023-04-09T07:59:29;101403.53;;;14.87;100.00
24230;BME280;12362;50.004;8.006;2023-04-09T08:01:55;101410.56;;;14.52;100.00
24230;BME280;12362;50.004;8.006;2023-04-09T08:04:21;101400.72;;;14.92;100.00
24230;BME280;12362;50.004;8.006;2023-04-09T08:06:47;101404.59;;;14.66;100.00
24230;BME280;12362;50.004;8.006;2023-04-09T08:09:15;101399.06;;;14.89;100.00
24230;BME280;12362;50.004;8.006;2023-04-09T08:11:41;101393.28;;;15.66;95.06
24230;BME280;12362;50.004;8.006;2023-04-09T08:14:07;101394.06;;;15.36;95.87
24230;BME280;12362;50.004;8.006;2023-04-09T08:16:46;101392.78;;;15.75;96.41
24230;BME280;12362;50.004;8.006;2023-04-09T08:19:14;101392.88;;;15.24;97.34
24230;BME280;12362;50.004;8.006;2023-04-09T08:21:40;101391.66;;;15.63;100.00
24230;BME280;12362;50.004;8.006;2023-04-09T08:24:09;101398.81;;;15.92;99.43
24230;BME280;12362;50.004;8.006;2023-04-09T08:26:39;101387.72;;;16.49;91.78
24230;BME280;12362;50.004;8.006;2023-04-09T08:29:05;101394.81;;;16.47;89.96
24230;BME280;12362;50.004;8.006;2023-04-09T08:31:31;101389.50;;;16.48;87.88
24230;BME280;12362;50.004;8.006;2023-04-09T08:33:57;101387.38;;;16.84;90.47
24230;BME280;12362;50.004;8.006;2023-04-09T08:36:22;101397.22;;;16.36;87.50
24230;BME280;12362;50.004;8.006;2023-04-09T08:38:48;101403.00;;;15.79;98.56
24230;BME280;12362;50.004;8.006;2023-04-09T08:41:19;101401.00;;;16.15;88.52
24230;BME280;12362;50.004;8.006;2023-04-09T08:43:49;101395.94;;;15.81;98.00
24230;BME280;12362;50.004;8.006;2023-04-09T08:46:20;101401.63;;;16.36;96.24
24230;BME280;12362;50.004;8.006;2023-04-09T08:48:47;101395.88;;;16.74;94.92
24230;BME280;12362;50.004;8.006;2023-04-09T08:51:14;101400.97;;;16.32;88.85
24230;BME280;12362;50.004;8.006;2023-04-09T08:53:43;101403.56;;;17.06;79.24
24230;BME280;12362;50.004;8.006;2023-04-09T08:56:09;101397.22;;;16.36;90.51
24230;BME280;12362;50.004;8.006;2023-04-09T08:58:35;101397.59;;;16.89;92.25
24230;BME280;12362;50.004;8.006;2023-04-09T09:01:01;101398.19;;;17.37;82.08
24230;BME280;12362;50.004;8.006;2023-04-09T09:03:27;101388.84;;;18.01;73.77
24230;BME280;12362;50.004;8.006;2023-04-09T09:05:52;101400.56;;;16.83;88.35
24230;BME280;12362;50.004;8.006;2023-04-09T09:08:25;101404.28;;;17.37;82.17
24230;BME280;12362;50.004;8.006;2023-04-09T09:10:50;101398.69;;;17.14;74.84
24230;BME280;12362;50.004;8.006;2023-04-09T09:13:21;101421.38;;;15.13;100.00
24230;BME280;12362;50.004;8.006;2023-04-09T09:15:48;101420.69;;;15.10;100.00
24230;BME280;12362;50.004;8.006;2023-04-09T09:18:37;101418.16;;;16.05;98.92
24230;BME280;12362;50.004;8.006;2023-04-09T09:21:14;101406.19;;;17.06;81.94
24230;BME280;12362;50.004;8.006;2023-04-09T09:23:40;101398.13;;;17.23;90.47
24230;BME280;12362;50.004;8.006;2023-04-09T09:26:14;101403.66;;;18.02;79.42
24230;BME280;12362;50.004;8.006;2023-04-09T09:28:45;101399.16;;;17.21;83.58
24230;BME280;12362;50.004;8.006;2023-04-09T09:31:11;101399.38;;;16.88;88.44
24230;BME280;12362;50.004;8.006;2023-04-09T09:33:38;101397.88;;;16.84;74.46
24230;BME280;12362;50.004;8.006;2023-04-09T09:36:04;101408.72;;;16.03;92.76
24230;BME280;12362;50.004;8.006;2023-04-09T09:38:30;101412.78;;;15.60;100.00
24230;BME280;12362;50.004;8.006;2023-04-09T09:40:57;101398.69;;;15.78;96.57
24230;BME280;12362;50.004;8.006;2023-04-09T09:43:23;101391.00;;;16.82;84.76
24230;BME280;12362;50.004;8.006;2023-04-09T09:45:49;101382.28;;;17.94;74.76
24230;BME280;12362;50.004;8.006;2023-04-09T09:48:15;101383.31;;;18.06;75.56
24230;BME280;12362;50.004;8.006;2023-04-09T09:50:41;101376.06;;;17.69;67.13
24230;BME280;12362;50.004;8.006;2023-04-09T09:53:09;101373.81;;;16.33;83.98
24230;BME280;12362;50.004;8.006;2023-04-09T09:55:40;101380.53;;;15.75;92.07
24230;BME280;12362;50.004;8.006;2023-04-09T09:58:22;101384.81;;;15.29;100.00
24230;BME280;12362;50.004;8.006;2023-04-09T10:00:50;101370.13;;;16.80;93.89
24230;BME280;12362;50.004;8.006;2023-04-09T10:03:23;101367.41;;;17.11;90.83
24230;BME280;12362;50.004;8.006;2023-04-09T10:05:50;101375.97;;;16.10;95.14
24230;BME280;12362;50.004;8.006;2023-04-09T10:08:18;101363.78;;;16.55;94.44
24230;BME280;12362;50.004;8.006;2023-04-09T10:10:45;101362.47;;;17.34;94.29
24230;BME280;12362;50.004;8.006;2023-04-09T10:13:22;101343.22;;;19.18;76.53
24230;BME280;12362;50.004;8.006;2023-04-09T10:15:52;101352.34;;;17.97;74.78
24230;BME280;12362;50.004;8.006;2023-04-09T10:18:18;101353.50;;;17.23;80.98
24230;BME280;12362;50.004;8.006;2023-04-09T10:20:58;101345.94;;;17.33;83.52
24230;BME280;12362;50.004;8.006;2023-04-09T10:23:34;101341.16;;;17.67;80.22
24230;BME280;12362;50.004;8.006;2023-04-09T10:26:00;101341.63;;;17.59;74.94
24230;BME280;12362;50.004;8.006;2023-04-09T10:28:27;101344.25;;;17.45;75.15
24230;BME280;12362;50.004;8.006;2023-04-09T10:30:52;101345.34;;;18.10;75.90
24230;BME280;12362;50.004;8.006;2023-04-09T10:33:22;101341.91;;;17.55;81.77
24230;BME280;12362;50.004;8.006;2023-04-09T10:35:51;101331.66;;;18.57;83.64
24230;BME280;12362;50.004;8.006;2023-04-09T10:38:32;101324.78;;;19.06;68.04
24230;BME280;12362;50.004;8.006;2023-04-09T10:40:57;101331.69;;;18.82;68.26
24230;BME280;12362;50.004;8.006;2023-04-09T10:43:23;101333.03;;;18.24;66.49
24230;BME280;12362;50.004;8.006;2023-04-09T10:45:55;101324.97;;;19.03;67.71
24230;BME280;12362;50.004;8.006;2023-04-09T10:48:25;101328.81;;;19.12;62.83
24230;BME280;12362;50.004;8.006;2023-04-09T10:51:03;101328.47;;;19.89;58.60
24230;BME280;12362;50.004;8.006;2023-04-09T10:53:57;101326.94;;;19.74;58.83
24230;BME280;12362;50.004;8.006;2023-04-09T10:56:23;101345.66;;;18.05;70.07
24230;BME280;12362;50.004;8.006;2023-04-09T10:58:51;101347.16;;;17.55;61.31
24230;BME280;12362;50.004;8.006;2023-04-09T11:01:21;101346.34;;;16.83;56.07
24230;BME280;12362;50.004;8.006;2023-04-09T11:04:07;101331.81;;;18.29;51.67
24230;BME280;12362;50.004;8.006;2023-04-09T11:06:35;101322.47;;;19.14;51.38
24230;BME280;12362;50.004;8.006;2023-04-09T11:09:02;101318.56;;;19.19;50.40
24230;BME280;12362;50.004;8.006;2023-04-09T11:11:29;101334.72;;;17.85;52.79
24230;BME280;12362;50.004;8.006;2023-04-09T11:13:58;101340.91;;;17.00;54.04
24230;BME280;12362;50.004;8.006;2023-04-09T11:16:30;101340.53;;;16.92;57.18
24230;BME280;12362;50.004;8.006;2023-04-09T11:18:55;101346.25;;;15.95;59.87
24230;BME280;12362;50.004;8.006;2023-04-09T11:21:26;101340.75;;;15.84;61.69
24230;BME280;12362;50.004;8.006;2023-04-09T11:23:54;101334.81;;;16.86;57.63
24230;BME280;12362;50.004;8.006;2023-04-09T11:26:29;101319.63;;;18.15;51.53
24230;BME280;12362;50.004;8.006;2023-04-09T11:29:03;101326.31;;;17.80;51.61
24230;BME280;12362;50.004;8.006;2023-04-09T11:31:29;101330.41;;;17.00;54.14
24230;BME280;12362;50.004;8.006;2023-04-09T11:33:57;101326.06;;;17.56;52.13
24230;BME280;12362;50.004;8.006;2023-04-09T11:36:23;101324.94;;;17.33;49.98
24230;BME280;12362;50.004;8.006;2023-04-09T11:38:48;101331.25;;;16.87;50.51
24230;BME280;12362;50.004;8.006;2023-04-09T11:41:15;101328.31;;;16.34;51.06
24230;BME280;12362;50.004;8.006;2023-04-09T11:43:41;101324.84;;;16.18;50.97
24230;BME280;12362;50.004;8.006;2023-04-09T11:46:07;101326.72;;;16.01;55.41
24230;BME280;12362;50.004;8.006;2023-04-09T11:48:33;101328.50;;;16.16;55.77
24230;BME280;12362;50.004;8.006;2023-04-09T11:50:59;101324.19;;;16.30;57.44
24230;BME280;12362;50.004;8.006;2023-04-09T11:53:29;101322.03;;;16.66;52.56
24230;BME280;12362;50.004;8.006;2023-04-09T11:55:55;101307.41;;;18.27;48.70
24230;BME280;12362;50.004;8.006;2023-04-09T11:58:22;101297.63;;;19.18;43.87
24230;BME280;12362;50.004;8.006;2023-04-09T12:00:52;101299.94;;;19.22;43.93
24230;BME280;12362;50.004;8.006;2023-04-09T12:03:26;101298.53;;;18.92;44.26
24230;BME280;12362;50.004;8.006;2023-04-09T12:05:52;101308.72;;;18.72;46.31
24230;BME280;12362;50.004;8.006;2023-04-09T12:08:22;101296.47;;;20.06;44.10
24230;BME280;12362;50.004;8.006;2023-04-09T12:10:49;101306.28;;;18.56;46.62
24230;BME280;12362;50.004;8.006;2023-04-09T12:13:16;101301.69;;;18.85;45.52
24230;BME280;12362;50.004;8.006;2023-04-09T12:15:42;101283.72;;;19.64;44.09
24230;BME280;12362;50.004;8.006;2023-04-09T12:18:10;101293.00;;;19.70;45.88
24230;BME280;12362;50.004;8.006;2023-04-09T12:20:37;101286.69;;;20.19;45.89
24230;BME280;12362;50.004;8.006;2023-04-09T12:23:10;101293.44;;;20.00;44.86
24230;BME280;12362;50.004;8.006;2023-04-09T12:25:38;101312.00;;;17.84;47.14
24230;BME280;12362;50.004;8.006;2023-04-09T12:28:06;101316.66;;;16.97;50.81
24230;BME280;12362;50.004;8.006;2023-04-09T12:30:33;101313.94;;;17.12;52.34
24230;BME280;12362;50.004;8.006;2023-04-09T12:32:59;101310.47;;;17.26;51.53
24230;BME280;12362;50.004;8.006;2023-04-09T12:35:25;101304.44;;;16.68;50.91
24230;BME280;12362;50.004;8.006;2023-04-09T12:37:51;101306.41;;;16.20;52.88
24230;BME280;12362;50.004;8.006;2023-04-09T12:40:18;101296.94;;;16.33;52.00
24230;BME280;12362;50.004;8.006;2023-04-09T12:42:44;101299.41;;;16.79;53.82
24230;BME280;12362;50.004;8.006;2023-04-09T12:45:13;101296.25;;;17.16;53.93
24230;BME280;12362;50.004;8.006;2023-04-09T12:47:39;101293.69;;;17.00;49.96
24230;BME280;12362;50.004;8.006;2023-04-09T12:50:06;101299.16;;;17.11;49.85
24230;BME280;12362;50.004;8.006;2023-04-09T12:52:32;101298.31;;;17.38;50.99
24230;BME280;12362;50.004;8.006;2023-04-09T12:54:59;101283.63;;;18.29;48.36
24230;BME280;12362;50.004;8.006;2023-04-09T12:57:24;101285.97;;;18.20;46.65
24230;BME280;12362;50.004;8.006;2023-04-09T12:59:50;101295.63;;;17.66;48.21
24230;BME280;12362;50.004;8.006;2023-04-09T13:02:15;101295.84;;;17.08;51.12